sensor_id;sensor_type;location;lat;lon;timestamp;P1;durP1;ratioP1;P2;durP2;ratioP2
13366;SDS011;6752;52.612;13.630;2022-12-18T00:03:58;107.90;;;42.62;;
13366;SDS011;6752;52.612;13.630;2022-12-18T00:09:00;80.90;;;40.00;;
13366;SDS011;6752;52.612;13.630;2022-12-18T00:14:02;79.97;;;49.50;;
13366;SDS011;6752;52.612;13.630;2022-12-18T00:19:05;98.78;;;40.72;;
13366;SDS011;6752;52.612;13.630;2022-12-18T00:24:07;77.40;;;37.35;;
13366;SDS011;6752;52.612;13.630;2022-12-18T00:29:11;93.20;;;40.63;;
13366;SDS011;6752;52.612;13.630;2022-12-18T00:34:13;102.57;;;52.10;;
13366;SDS011;6752;52.612;13.630;2022-12-18T00:44:24;102.30;;;39.97;;
13366;SDS011;6752;52.612;13.630;2022-12-18T00:49:27;100.00;;;40.75;;
13366;SDS011;6752;52.612;13.630;2022-12-18T00:54:29;106.10;;;39.95;;
13366;SDS011;6752;52.612;13.630;2022-12-18T00:59:32;173.73;;;48.25;;
13366;SDS011;6752;52.612;13.630;2022-12-18T01:04:34;152.05;;;48.70;;
13366;SDS011;6752;52.612;13.630;2022-12-18T01:09:37;149.48;;;48.58;;
13366;SDS011;6752;52.612;13.630;2022-12-18T01:14:40;201.45;;;51.40;;
13366;SDS011;6752;52.612;13.630;2022-12-18T01:19:43;150.75;;;50.60;;
13366;SDS011;6752;52.612;13.630;2022-12-18T01:24:45;173.90;;;53.75;;
13366;SDS011;6752;52.612;13.630;2022-12-18T01:29:48;217.98;;;61.25;;
13366;SDS011;6752;52.612;13.630;2022-12-18T01:34:50;205.65;;;81.25;;
13366;SDS011;6752;52.612;13.630;2022-12-18T01:39:54;183.40;;;59.00;;
13366;SDS011;6752;52.612;13.630;2022-12-18T01:45:01;170.07;;;55.05;;
13366;SDS011;6752;52.612;13.630;2022-12-18T01:50:21;168.57;;;56.63;;
13366;SDS011;6752;52.612;13.630;2022-12-18T01:55:28;150.27;;;59.13;;
13366;SDS011;6752;52.612;13.630;2022-12-18T02:00:28;139.25;;;52.35;;
13366;SDS011;6752;52.612;13.630;2022-12-18T02:16:24;117.07;;;47.58;;
13366;SDS011;6752;52.612;13.630;2022-12-18T02:21:45;105.82;;;59.13;;
13366;SDS011;6752;52.612;13.630;2022-12-18T02:26:55;105.00;;;44.37;;
13366;SDS011;6752;52.612;13.630;2022-12-18T02:32:00;111.47;;;44.65;;
13366;SDS011;6752;52.612;13.630;2022-12-18T02:37:12;101.10;;;41.37;;
13366;SDS011;6752;52.612;13.630;2022-12-18T02:42:17;90.20;;;40.00;;
13366;SDS011;6752;52.612;13.630;2022-12-18T02:47:24;100.53;;;41.35;;
13366;SDS011;6752;52.612;13.630;2022-12-18T02:52:35;92.50;;;39.60;;
13366;SDS011;6752;52.612;13.630;2022-12-18T02:57:54;115.28;;;42.10;;
13366;SDS011;6752;52.612;13.630;2022-12-18T03:02:58;176.85;;;45.20;;
13366;SDS011;6752;52.612;13.630;2022-12-18T03:08:01;149.77;;;61.20;;
13366;SDS011;6752;52.612;13.630;2022-12-18T03:13:13;86.63;;;39.50;;
13366;SDS011;6752;52.612;13.630;2022-12-18T03:18:17;122.97;;;41.63;;
13366;SDS011;6752;52.612;13.630;2022-12-18T03:28:25;152.85;;;43.58;;
13366;SDS011;6752;52.612;13.630;2022-12-18T03:33:31;247.05;;;46.80;;
13366;SDS011;6752;52.612;13.630;2022-12-18T03:38:33;94.10;;;40.40;;
13366;SDS011;6752;52.612;13.630;2022-12-18T03:43:43;98.87;;;41.78;;
13366;SDS011;6752;52.612;13.630;2022-12-18T03:58:56;125.82;;;40.90;;
13366;SDS011;6752;52.612;13.630;2022-12-18T04:04:01;113.18;;;38.25;;
13366;SDS011;6752;52.612;13.630;2022-12-18T04:09:03;89.37;;;33.92;;
13366;SDS011;6752;52.612;13.630;2022-12-18T04:14:08;86.68;;;37.53;;
13366;SDS011;6752;52.612;13.630;2022-12-18T04:19:11;135.07;;;39.83;;
13366;SDS011;6752;52.612;13.630;2022-12-18T04:24:16;108.60;;;37.63;;
13366;SDS011;6752;52.612;13.630;2022-12-18T04:29:19;103.30;;;39.75;;
13366;SDS011;6752;52.612;13.630;2022-12-18T04:34:31;102.22;;;41.17;;
13366;SDS011;6752;52.612;13.630;2022-12-18T04:39:34;109.37;;;41.28;;
13366;SDS011;6752;52.612;13.630;2022-12-18T04:44:36;119.07;;;43.50;;
13366;SDS011;6752;52.612;13.630;2022-12-18T04:49:39;154.43;;;56.17;;
13366;SDS011;6752;52.612;13.630;2022-12-18T04:54:43;98.93;;;41.08;;
13366;SDS011;6752;52.612;13.630;2022-12-18T04:59:46;109.35;;;40.80;;
13366;SDS011;6752;52.612;13.630;2022-12-18T05:04:51;92.20;;;39.55;;
13366;SDS011;6752;52.612;13.630;2022-12-18T05:09:54;165.82;;;67.40;;
13366;SDS011;6752;52.612;13.630;2022-12-18T05:14:59;133.85;;;55.10;;
13366;SDS011;6752;52.612;13.630;2022-12-18T05:20:02;131.35;;;73.32;;
13366;SDS011;6752;52.612;13.630;2022-12-18T05:25:04;166.35;;;68.12;;
13366;SDS011;6752;52.612;13.630;2022-12-18T05:30:25;125.97;;;61.33;;
13366;SDS011;6752;52.612;13.630;2022-12-18T05:35:27;157.37;;;61.35;;
13366;SDS011;6752;52.612;13.630;2022-12-18T05:40:30;121.25;;;59.45;;
13366;SDS011;6752;52.612;13.630;2022-12-18T05:45:39;113.85;;;56.83;;
13366;SDS011;6752;52.612;13.630;2022-12-18T05:50:41;111.03;;;51.55;;
13366;SDS011;6752;52.612;13.630;2022-12-18T05:55:43;107.85;;;49.25;;
13366;SDS011;6752;52.612;13.630;2022-12-18T06:00:46;137.25;;;55.05;;
13366;SDS011;6752;52.612;13.630;2022-12-18T06:05:50;133.15;;;53.33;;
13366;SDS011;6752;52.612;13.630;2022-12-18T06:10:52;113.07;;;47.90;;
13366;SDS011;6752;52.612;13.630;2022-12-18T06:15:55;130.63;;;49.58;;
13366;SDS011;6752;52.612;13.630;2022-12-18T06:20:58;99.28;;;43.45;;
13366;SDS011;6752;52.612;13.630;2022-12-18T06:26:03;98.15;;;42.40;;
13366;SDS011;6752;52.612;13.630;2022-12-18T06:31:05;76.10;;;36.33;;
13366;SDS011;6752;52.612;13.630;2022-12-18T06:36:08;111.53;;;38.70;;
13366;SDS011;6752;52.612;13.630;2022-12-18T06:41:11;139.00;;;40.33;;
13366;SDS011;6752;52.612;13.630;2022-12-18T06:46:12;79.75;;;38.83;;
13366;SDS011;6752;52.612;13.630;2022-12-18T06:51:18;101.00;;;39.22;;
13366;SDS011;6752;52.612;13.630;2022-12-18T06:56:20;92.75;;;37.70;;
13366;SDS011;6752;52.612;13.630;2022-12-18T07:01:27;69.20;;;30.75;;
13366;SDS011;6752;52.612;13.630;2022-12-18T07:06:33;92.55;;;38.95;;
13366;SDS011;6752;52.612;13.630;2022-12-18T07:11:35;100.18;;;40.10;;
13366;SDS011;6752;52.612;13.630;2022-12-18T07:16:42;113.03;;;38.53;;
13366;SDS011;6752;52.612;13.630;2022-12-18T07:22:03;94.13;;;37.97;;
13366;SDS011;6752;52.612;13.630;2022-12-18T07:27:11;109.28;;;40.97;;
13366;SDS011;6752;52.612;13.630;2022-12-18T07:32:17;106.97;;;40.97;;
13366;SDS011;6752;52.612;13.630;2022-12-18T07:37:23;108.65;;;42.62;;
13366;SDS011;6752;52.612;13.630;2022-12-18T07:47:35;115.82;;;40.00;;
13366;SDS011;6752;52.612;13.630;2022-12-18T07:52:38;110.95;;;41.47;;
13366;SDS011;6752;52.612;13.630;2022-12-18T07:57:43;100.15;;;40.85;;
13366;SDS011;6752;52.612;13.630;2022-12-18T08:07:50;89.50;;;40.08;;
13366;SDS011;6752;52.612;13.630;2022-12-18T08:12:53;106.75;;;41.42;;
13366;SDS011;6752;52.612;13.630;2022-12-18T08:17:58;94.18;;;37.40;;
13366;SDS011;6752;52.612;13.630;2022-12-18T08:23:00;105.50;;;41.58;;
13366;SDS011;6752;52.612;13.630;2022-12-18T08:28:03;103.22;;;42.58;;
13366;SDS011;6752;52.612;13.630;2022-12-18T08:33:08;122.00;;;43.45;;
13366;SDS011;6752;52.612;13.630;2022-12-18T08:38:10;108.95;;;40.15;;
13366;SDS011;6752;52.612;13.630;2022-12-18T08:43:13;123.72;;;41.83;;
13366;SDS011;6752;52.612;13.630;2022-12-18T08:48:33;127.20;;;44.95;;
13366;SDS011;6752;52.612;13.630;2022-12-18T08:53:36;127.95;;;44.97;;
13366;SDS011;6752;52.612;13.630;2022-12-18T08:58:38;133.80;;;44.50;;
13366;SDS011;6752;52.612;13.630;2022-12-18T09:03:40;91.87;;;38.90;;
13366;SDS011;6752;52.612;13.630;2022-12-18T09:13:45;102.28;;;42.40;;
13366;SDS011;6752;52.612;13.630;2022-12-18T09:18:47;113.88;;;44.25;;
13366;SDS011;6752;52.612;13.630;2022-12-18T09:23:50;118.85;;;43.20;;
13366;SDS011;6752;52.612;13.630;2022-12-18T09:28:52;107.53;;;43.67;;
13366;SDS011;6752;52.612;13.630;2022-12-18T09:33:55;125.28;;;59.22;;
13366;SDS011;6752;52.612;13.630;2022-12-18T09:38:57;118.37;;;47.75;;
13366;SDS011;6752;52.612;13.630;2022-12-18T09:44:00;111.62;;;41.55;;
13366;SDS011;6752;52.612;13.630;2022-12-18T09:49:06;102.75;;;40.88;;
13366;SDS011;6752;52.612;13.630;2022-12-18T09:54:11;122.62;;;44.00;;
13366;SDS011;6752;52.612;13.630;2022-12-18T09:59:46;151.43;;;55.88;;
13366;SDS011;6752;52.612;13.630;2022-12-18T10:04:24;164.37;;;65.60;;
13366;SDS011;6752;52.612;13.630;2022-12-18T10:09:32;140.73;;;60.22;;
13366;SDS011;6752;52.612;13.630;2022-12-18T10:19:56;120.07;;;44.60;;
13366;SDS011;6752;52.612;13.630;2022-12-18T10:30:21;117.97;;;41.88;;
13366;SDS011;6752;52.612;13.630;2022-12-18T10:35:23;103.40;;;41.60;;
13366;SDS011;6752;52.612;13.630;2022-12-18T10:40:25;116.22;;;44.03;;
13366;SDS011;6752;52.612;13.630;2022-12-18T10:50:30;101.45;;;41.00;;
13366;SDS011;6752;52.612;13.630;2022-12-18T10:55:35;97.18;;;36.45;;
13366;SDS011;6752;52.612;13.630;2022-12-18T11:00:37;102.00;;;41.78;;
13366;SDS011;6752;52.612;13.630;2022-12-18T11:05:39;93.93;;;42.92;;
13366;SDS011;6752;52.612;13.630;2022-12-18T11:10:41;172.10;;;68.18;;
13366;SDS011;6752;52.612;13.630;2022-12-18T11:15:44;96.90;;;40.40;;
13366;SDS011;6752;52.612;13.630;2022-12-18T11:25:55;92.80;;;37.35;;
13366;SDS011;6752;52.612;13.630;2022-12-18T11:31:43;91.93;;;51.40;;
13366;SDS011;6752;52.612;13.630;2022-12-18T11:36:14;91.73;;;42.27;;
13366;SDS011;6752;52.612;13.630;2022-12-18T11:47:00;96.90;;;38.97;;
13366;SDS011;6752;52.612;13.630;2022-12-18T11:57:27;81.03;;;36.40;;
13366;SDS011;6752;52.612;13.630;2022-12-18T12:19:06;87.40;;;38.95;;
13366;SDS011;6752;52.612;13.630;2022-12-18T12:24:43;70.70;;;37.13;;
13366;SDS011;6752;52.612;13.630;2022-12-18T12:35:18;71.45;;;38.97;;
13366;SDS011;6752;52.612;13.630;2022-12-18T12:40:33;75.03;;;37.00;;
13366;SDS011;6752;52.612;13.630;2022-12-18T12:45:42;73.03;;;35.58;;
13366;SDS011;6752;52.612;13.630;2022-12-18T12:55:48;70.37;;;36.10;;
13366;SDS011;6752;52.612;13.630;2022-12-18T13:01:01;59.53;;;33.35;;
13366;SDS011;6752;52.612;13.630;2022-12-18T13:06:00;70.80;;;33.10;;
13366;SDS011;6752;52.612;13.630;2022-12-18T13:11:02;71.50;;;36.10;;
13366;SDS011;6752;52.612;13.630;2022-12-18T13:16:23;124.22;;;76.93;;
13366;SDS011;6752;52.612;13.630;2022-12-18T13:21:30;85.50;;;49.55;;
13366;SDS011;6752;52.612;13.630;2022-12-18T13:26:33;69.75;;;33.20;;
13366;SDS011;6752;52.612;13.630;2022-12-18T13:36:42;67.95;;;32.28;;
13366;SDS011;6752;52.612;13.630;2022-12-18T13:41:45;69.05;;;34.90;;
13366;SDS011;6752;52.612;13.630;2022-12-18T13:46:50;80.85;;;36.83;;
13366;SDS011;6752;52.612;13.630;2022-12-18T13:56:53;119.43;;;60.42;;
13366;SDS011;6752;52.612;13.630;2022-12-18T14:01:57;81.68;;;38.42;;
13366;SDS011;6752;52.612;13.630;2022-12-18T14:07:01;91.90;;;43.05;;
13366;SDS011;6752;52.612;13.630;2022-12-18T14:12:06;125.25;;;55.95;;
13366;SDS011;6752;52.612;13.630;2022-12-18T14:17:28;105.95;;;56.35;;
13366;SDS011;6752;52.612;13.630;2022-12-18T14:22:30;75.70;;;49.90;;
13366;SDS011;6752;52.612;13.630;2022-12-18T14:27:36;67.23;;;41.67;;
13366;SDS011;6752;52.612;13.630;2022-12-18T14:32:37;65.10;;;32.25;;
13366;SDS011;6752;52.612;13.630;2022-12-18T14:37:39;69.10;;;35.22;;
13366;SDS011;6752;52.612;13.630;2022-12-18T14:42:45;80.53;;;38.85;;
13366;SDS011;6752;52.612;13.630;2022-12-18T14:47:50;76.40;;;38.08;;
13366;SDS011;6752;52.612;13.630;2022-12-18T14:52:52;80.35;;;38.15;;
13366;SDS011;6752;52.612;13.630;2022-12-18T14:57:55;74.93;;;38.00;;
13366;SDS011;6752;52.612;13.630;2022-12-18T15:03:00;99.95;;;43.87;;
13366;SDS011;6752;52.612;13.630;2022-12-18T15:08:02;84.68;;;41.33;;
13366;SDS011;6752;52.612;13.630;2022-12-18T15:23:14;90.55;;;42.78;;
13366;SDS011;6752;52.612;13.630;2022-12-18T15:33:41;71.28;;;37.42;;
13366;SDS011;6752;52.612;13.630;2022-12-18T15:38:46;71.97;;;36.78;;
13366;SDS011;6752;52.612;13.630;2022-12-18T15:43:49;61.42;;;35.22;;
13366;SDS011;6752;52.612;13.630;2022-12-18T15:53:53;69.15;;;37.63;;
13366;SDS011;6752;52.612;13.630;2022-12-18T15:58:55;71.72;;;35.80;;
13366;SDS011;6752;52.612;13.630;2022-12-18T16:03:57;70.05;;;37.15;;
13366;SDS011;6752;52.612;13.630;2022-12-18T16:08:59;85.97;;;41.25;;
13366;SDS011;6752;52.612;13.630;2022-12-18T16:14:02;73.12;;;38.22;;
13366;SDS011;6752;52.612;13.630;2022-12-18T16:19:04;72.80;;;36.70;;
13366;SDS011;6752;52.612;13.630;2022-12-18T16:24:13;68.72;;;44.70;;
13366;SDS011;6752;52.612;13.630;2022-12-18T16:29:27;71.78;;;39.63;;
13366;SDS011;6752;52.612;13.630;2022-12-18T16:34:29;90.20;;;45.35;;
13366;SDS011;6752;52.612;13.630;2022-12-18T16:39:32;92.18;;;51.47;;
13366;SDS011;6752;52.612;13.630;2022-12-18T16:44:33;68.50;;;40.05;;
13366;SDS011;6752;52.612;13.630;2022-12-18T16:49:36;69.82;;;37.10;;
13366;SDS011;6752;52.612;13.630;2022-12-18T16:54:38;84.22;;;44.80;;
13366;SDS011;6752;52.612;13.630;2022-12-18T16:59:41;66.12;;;36.55;;
13366;SDS011;6752;52.612;13.630;2022-12-18T17:04:43;75.00;;;38.67;;
13366;SDS011;6752;52.612;13.630;2022-12-18T17:09:45;66.40;;;43.05;;
13366;SDS011;6752;52.612;13.630;2022-12-18T17:14:48;75.97;;;42.50;;
13366;SDS011;6752;52.612;13.630;2022-12-18T17:19:50;66.47;;;35.75;;
13366;SDS011;6752;52.612;13.630;2022-12-18T17:24:53;67.15;;;37.53;;
13366;SDS011;6752;52.612;13.630;2022-12-18T17:29:55;79.03;;;41.05;;
13366;SDS011;6752;52.612;13.630;2022-12-18T17:34:57;138.50;;;64.60;;
13366;SDS011;6752;52.612;13.630;2022-12-18T17:40:00;107.37;;;50.80;;
13366;SDS011;6752;52.612;13.630;2022-12-18T17:45:02;109.87;;;56.55;;
13366;SDS011;6752;52.612;13.630;2022-12-18T17:50:05;74.72;;;48.28;;
13366;SDS011;6752;52.612;13.630;2022-12-18T17:55:07;86.53;;;44.15;;
13366;SDS011;6752;52.612;13.630;2022-12-18T18:00:10;127.38;;;56.58;;
13366;SDS011;6752;52.612;13.630;2022-12-18T18:05:12;85.30;;;42.30;;
13366;SDS011;6752;52.612;13.630;2022-12-18T18:10:14;85.03;;;42.65;;
13366;SDS011;6752;52.612;13.630;2022-12-18T18:15:17;86.30;;;42.47;;
13366;SDS011;6752;52.612;13.630;2022-12-18T18:20:19;90.28;;;41.28;;
13366;SDS011;6752;52.612;13.630;2022-12-18T18:25:22;84.40;;;41.08;;
13366;SDS011;6752;52.612;13.630;2022-12-18T18:30:24;86.55;;;43.83;;
13366;SDS011;6752;52.612;13.630;2022-12-18T18:35:26;87.55;;;44.17;;
13366;SDS011;6752;52.612;13.630;2022-12-18T18:45:31;109.78;;;50.12;;
13366;SDS011;6752;52.612;13.630;2022-12-18T18:50:33;147.98;;;64.07;;
13366;SDS011;6752;52.612;13.630;2022-12-18T18:55:35;106.30;;;47.67;;
13366;SDS011;6752;52.612;13.630;2022-12-18T19:00:38;103.95;;;50.40;;
13366;SDS011;6752;52.612;13.630;2022-12-18T19:05:40;109.57;;;52.92;;
13366;SDS011;6752;52.612;13.630;2022-12-18T19:10:43;102.15;;;46.00;;
13366;SDS011;6752;52.612;13.630;2022-12-18T19:15:45;102.47;;;46.97;;
13366;SDS011;6752;52.612;13.630;2022-12-18T19:20:58;100.90;;;49.53;;
13366;SDS011;6752;52.612;13.630;2022-12-18T19:25:59;94.72;;;43.00;;
13366;SDS011;6752;52.612;13.630;2022-12-18T19:31:03;98.93;;;46.67;;
13366;SDS011;6752;52.612;13.630;2022-12-18T19:36:39;95.68;;;59.25;;
13366;SDS011;6752;52.612;13.630;2022-12-18T19:41:12;92.55;;;45.85;;
13366;SDS011;6752;52.612;13.630;2022-12-18T19:46:15;86.40;;;43.13;;
13366;SDS011;6752;52.612;13.630;2022-12-18T19:51:21;89.65;;;45.08;;
13366;SDS011;6752;52.612;13.630;2022-12-18T19:56:23;87.93;;;56.72;;
13366;SDS011;6752;52.612;13.630;2022-12-18T20:01:25;87.25;;;44.28;;
13366;SDS011;6752;52.612;13.630;2022-12-18T20:11:51;88.75;;;45.42;;
13366;SDS011;6752;52.612;13.630;2022-12-18T20:16:53;90.03;;;44.10;;
13366;SDS011;6752;52.612;13.630;2022-12-18T20:21:56;82.55;;;41.75;;
13366;SDS011;6752;52.612;13.630;2022-12-18T20:26:58;96.43;;;45.92;;
13366;SDS011;6752;52.612;13.630;2022-12-18T20:32:01;91.80;;;44.20;;
13366;SDS011;6752;52.612;13.630;2022-12-18T20:37:03;101.62;;;46.13;;
13366;SDS011;6752;52.612;13.630;2022-12-18T20:42:06;105.80;;;51.55;;
13366;SDS011;6752;52.612;13.630;2022-12-18T20:52:10;187.60;;;77.30;;
13366;SDS011;6752;52.612;13.630;2022-12-18T20:57:12;119.30;;;54.00;;
13366;SDS011;6752;52.612;13.630;2022-12-18T21:02:15;105.68;;;50.80;;
13366;SDS011;6752;52.612;13.630;2022-12-18T21:07:18;93.72;;;43.33;;
13366;SDS011;6752;52.612;13.630;2022-12-18T21:12:20;94.70;;;43.05;;
13366;SDS011;6752;52.612;13.630;2022-12-18T21:17:36;88.32;;;55.65;;
13366;SDS011;6752;52.612;13.630;2022-12-18T21:22:39;106.68;;;48.15;;
13366;SDS011;6752;52.612;13.630;2022-12-18T21:27:43;90.78;;;56.13;;
13366;SDS011;6752;52.612;13.630;2022-12-18T21:32:46;95.45;;;47.72;;
13366;SDS011;6752;52.612;13.630;2022-12-18T21:37:48;92.03;;;44.88;;
13366;SDS011;6752;52.612;13.630;2022-12-18T21:42:50;101.87;;;47.80;;
13366;SDS011;6752;52.612;13.630;2022-12-18T21:48:02;90.38;;;45.15;;
13366;SDS011;6752;52.612;13.630;2022-12-18T21:53:04;92.40;;;43.08;;
13366;SDS011;6752;52.612;13.630;2022-12-18T21:58:07;96.50;;;47.45;;
13366;SDS011;6752;52.612;13.630;2022-12-18T22:03:10;93.50;;;47.13;;
13366;SDS011;6752;52.612;13.630;2022-12-18T22:08:12;98.18;;;46.60;;
13366;SDS011;6752;52.612;13.630;2022-12-18T22:13:15;93.68;;;45.33;;
13366;SDS011;6752;52.612;13.630;2022-12-18T22:18:17;92.15;;;46.03;;
13366;SDS011;6752;52.612;13.630;2022-12-18T22:23:22;106.43;;;47.92;;
13366;SDS011;6752;52.612;13.630;2022-12-18T22:28:30;90.78;;;46.17;;
13366;SDS011;6752;52.612;13.630;2022-12-18T22:33:50;102.15;;;49.13;;
13366;SDS011;6752;52.612;13.630;2022-12-18T22:38:53;92.75;;;46.45;;
13366;SDS011;6752;52.612;13.630;2022-12-18T22:43:58;103.60;;;48.17;;
13366;SDS011;6752;52.612;13.630;2022-12-18T22:49:01;94.30;;;60.47;;
13366;SDS011;6752;52.612;13.630;2022-12-18T22:54:06;86.37;;;56.17;;
13366;SDS011;6752;52.612;13.630;2022-12-18T22:59:13;91.30;;;58.10;;
13366;SDS011;6752;52.612;13.630;2022-12-18T23:04:16;88.40;;;45.85;;
13366;SDS011;6752;52.612;13.630;2022-12-18T23:09:19;100.93;;;48.33;;
13366;SDS011;6752;52.612;13.630;2022-12-18T23:14:24;97.57;;;46.75;;
13366;SDS011;6752;52.612;13.630;2022-12-18T23:19:27;98.47;;;44.95;;
13366;SDS011;6752;52.612;13.630;2022-12-18T23:24:32;102.50;;;47.88;;
13366;SDS011;6752;52.612;13.630;2022-12-18T23:29:34;96.43;;;59.08;;
13366;SDS011;6752;52.612;13.630;2022-12-18T23:34:37;96.97;;;47.47;;
13366;SDS011;6752;52.612;13.630;2022-12-18T23:39:39;97.05;;;49.50;;
13366;SDS011;6752;52.612;13.630;2022-12-18T23:44:41;94.32;;;47.53;;
13366;SDS011;6752;52.612;13.630;2022-12-18T23:49:44;90.25;;;45.58;;
13366;SDS011;6752;52.612;13.630;2022-12-18T23:54:46;90.55;;;45.67;;
13366;SDS011;6752;52.612;13.630;2022-12-18T23:59:49;91.37;;;44.90;;
